Time;durP1;ratioP1;P1;durP2;ratioP2;P2;SDS_P1;SDS_P2;PMS_P1;PMS_P2;Temp;Humidity;BMP_temperature;BMP_pressure;BME280_temperature;BME280_humidity;BME280_pressure;Samples;Min_cycle;Max_cycle;Signal;HPM_P1;HPM_P2
2021/09/01 00:02:21;;;;;;;0.40;0.30;;;15.30;99.90;;;;;;4976059;28;20190;-85
2021/09/01 00:04:46;;;;;;;0.53;0.50;;;15.30;99.90;;;;;;4976476;28;20174;-85
2021/09/01 00:07:12;;;;;;;0.47;0.33;;;15.30;99.90;;;;;;4974722;28;20206;-85
2021/09/01 00:09:38;;;;;;;0.73;0.53;;;15.30;99.90;;;;;;4992759;28;20239;-85
2021/09/01 00:12:05;;;;;;;0.20;0.20;;;15.30;99.90;;;;;;4993350;28;20202;-85
2021/09/01 00:14:31;;;;;;;1.30;0.40;;;15.20;99.90;;;;;;4976302;28;20276;-85
2021/09/01 00:16:57;;;;;;;0.40;0.40;;;15.10;99.90;;;;;;4974282;28;20341;-85
2021/09/01 00:19:22;;;;;;;0.70;0.70;;;15.10;99.90;;;;;;4975602;28;20190;-84
2021/09/01 00:21:48;;;;;;;0.60;0.60;;;15.20;99.90;;;;;;4976184;28;20190;-85
2021/09/01 00:24:15;;;;;;;0.73;0.23;;;15.30;99.90;;;;;;4973261;28;20769;-85
2021/09/01 00:26:41;;;;;;;0.20;0.20;;;15.20;99.90;;;;;;4975995;28;20685;-85
2021/09/01 00:29:07;;;;;;;0.50;0.40;;;15.20;99.90;;;;;;4974654;28;20193;-85
2021/09/01 00:31:33;;;;;;;0.80;0.50;;;15.10;99.90;;;;;;4979881;28;20267;-84
2021/09/01 00:33:58;;;;;;;0.63;0.63;;;15.10;99.90;;;;;;4972165;28;20191;-85
2021/09/01 00:36:24;;;;;;;0.30;0.30;;;15.00;99.90;;;;;;4975588;28;20227;-84
2021/09/01 00:38:49;;;;;;;0.93;0.90;;;15.00;99.90;;;;;;4975437;28;20196;-85
2021/09/01 00:41:25;;;;;;;0.53;0.53;;;15.00;99.90;;;;;;4993345;28;20237;-85
2021/09/01 00:43:52;;;;;;;0.30;0.30;;;15.00;99.90;;;;;;4974355;28;20245;-85
2021/09/01 00:46:18;;;;;;;0.43;0.37;;;15.00;99.90;;;;;;4975016;28;20261;-85
2021/09/01 00:48:44;;;;;;;0.20;0.20;;;15.00;99.90;;;;;;4975568;28;20198;-85
2021/09/01 00:51:10;;;;;;;0.57;0.30;;;14.90;99.90;;;;;;4975113;28;20284;-85
2021/09/01 00:53:40;;;;;;;1.30;0.50;;;14.90;99.90;;;;;;4975555;28;20276;-85
2021/09/01 00:56:07;;;;;;;0.30;0.30;;;14.90;99.90;;;;;;4975443;28;20216;-85
2021/09/01 00:58:36;;;;;;;0.63;0.47;;;15.00;99.90;;;;;;4974702;28;20180;-85
2021/09/01 01:03:29;;;;;;;0.33;0.33;;;15.00;99.90;;;;;;4992661;28;20186;-85
2021/09/01 01:05:58;;;;;;;0.53;0.40;;;15.00;99.90;;;;;;4992477;28;20190;-84
2021/09/01 01:08:27;;;;;;;0.63;0.60;;;15.00;99.90;;;;;;4992824;28;20228;-85
2021/09/01 01:10:54;;;;;;;0.17;0.17;;;14.90;99.90;;;;;;4975286;28;20717;-85
2021/09/01 01:13:20;;;;;;;0.63;0.60;;;14.90;99.90;;;;;;4974504;28;20198;-84
2021/09/01 01:15:46;;;;;;;0.87;0.87;;;14.80;99.90;;;;;;4992185;28;20205;-85
2021/09/01 01:18:12;;;;;;;0.63;0.50;;;14.80;99.90;;;;;;4974539;28;20216;-85
2021/09/01 01:20:38;;;;;;;1.17;0.30;;;14.70;99.90;;;;;;4974290;28;20219;-84
2021/09/01 01:23:07;;;;;;;0.40;0.40;;;14.70;99.90;;;;;;4991870;28;20271;-84
2021/09/01 01:25:40;;;;;;;0.50;0.50;;;14.70;99.90;;;;;;4991484;28;20270;-85
2021/09/01 01:28:06;;;;;;;0.37;0.37;;;14.60;99.90;;;;;;4959347;28;20401;-85
2021/09/01 01:30:32;;;;;;;0.40;0.40;;;14.60;99.90;;;;;;4986106;28;20196;-85
2021/09/01 01:32:58;;;;;;;0.20;0.20;;;14.60;99.90;;;;;;4974772;28;20190;-84
2021/09/01 01:35:30;;;;;;;0.37;0.37;;;14.60;99.90;;;;;;4975163;28;20193;-84
2021/09/01 01:37:57;;;;;;;1.40;0.50;;;14.60;99.90;;;;;;4991418;28;20552;-85
2021/09/01 01:40:24;;;;;;;0.80;0.53;;;14.50;99.90;;;;;;4974474;28;20226;-85
2021/09/01 01:42:53;;;;;;;0.67;0.60;;;14.40;99.90;;;;;;4974187;28;20189;-85
2021/09/01 01:45:20;;;;;;;0.37;0.27;;;14.40;99.90;;;;;;4992516;28;20171;-85
2021/09/01 01:47:45;;;;;;;0.83;0.83;;;14.40;99.90;;;;;;4974598;28;20199;-85
2021/09/01 01:50:11;;;;;;;0.60;0.60;;;14.40;99.90;;;;;;4975200;28;20181;-84
2021/09/01 01:52:37;;;;;;;0.50;0.50;;;14.30;99.90;;;;;;4972101;28;20181;-84
2021/09/01 01:55:03;;;;;;;0.43;0.43;;;14.20;99.90;;;;;;4974347;28;20180;-85
2021/09/01 01:57:29;;;;;;;0.60;0.60;;;14.30;99.90;;;;;;4973596;28;20306;-85
2021/09/01 01:59:54;;;;;;;0.40;0.40;;;14.20;99.90;;;;;;4974856;28;20256;-85
2021/09/01 02:02:20;;;;;;;0.93;0.77;;;14.20;99.90;;;;;;4974219;28;20204;-85
2021/09/01 02:04:46;;;;;;;0.17;0.17;;;14.30;99.90;;;;;;4974908;28;20183;-85
2021/09/01 02:07:12;;;;;;;0.47;0.47;;;14.20;99.90;;;;;;4973379;28;20207;-85
2021/09/01 02:09:37;;;;;;;0.30;0.30;;;14.30;99.90;;;;;;4974655;28;20244;-85
2021/09/01 02:12:03;;;;;;;0.40;0.20;;;14.30;99.90;;;;;;4973936;28;20621;-85
2021/09/01 02:14:29;;;;;;;0.30;0.30;;;14.30;99.90;;;;;;4974507;28;20566;-85
2021/09/01 02:16:54;;;;;;;0.17;0.17;;;14.30;99.90;;;;;;4991911;28;20225;-85
2021/09/01 02:19:20;;;;;;;0.53;0.40;;;14.30;99.90;;;;;;4992171;28;20667;-85
2021/09/01 02:21:45;;;;;;;0.47;0.40;;;14.40;99.90;;;;;;4964010;28;20562;-84
2021/09/01 02:24:11;;;;;;;0.90;0.80;;;14.30;99.90;;;;;;4974251;28;20193;-84
2021/09/01 02:26:37;;;;;;;0.20;0.20;;;14.30;99.90;;;;;;4990799;28;20213;-85
2021/09/01 02:29:02;;;;;;;0.23;0.23;;;14.30;99.90;;;;;;4974703;28;20201;-85
2021/09/01 02:31:28;;;;;;;0.20;0.20;;;14.20;99.90;;;;;;4992227;28;20236;-85
2021/09/01 02:33:54;;;;;;;0.43;0.40;;;14.30;99.90;;;;;;4978048;28;20311;-85
2021/09/01 02:36:19;;;;;;;0.40;0.40;;;14.30;99.90;;;;;;4977366;28;20222;-85
2021/09/01 02:38:45;;;;;;;0.40;0.40;;;14.30;99.90;;;;;;4978164;28;20318;-84
2021/09/01 02:41:12;;;;;;;0.40;0.40;;;14.40;99.90;;;;;;4993935;28;20189;-85
2021/09/01 02:43:37;;;;;;;0.50;0.50;;;14.30;99.90;;;;;;4977561;28;20587;-84
2021/09/01 02:46:03;;;;;;;0.33;0.13;;;14.30;99.90;;;;;;4995214;28;20196;-85
2021/09/01 02:48:30;;;;;;;0.70;0.33;;;14.20;99.90;;;;;;4978085;28;20196;-84
2021/09/01 02:50:55;;;;;;;0.30;0.30;;;14.10;99.90;;;;;;4977286;28;20252;-85
2021/09/01 02:53:22;;;;;;;1.37;0.60;;;14.10;99.90;;;;;;4976676;28;20200;-84
2021/09/01 02:55:48;;;;;;;0.30;0.30;;;14.20;99.90;;;;;;4977407;28;20216;-85
2021/09/01 02:58:14;;;;;;;1.40;0.50;;;14.30;99.90;;;;;;4995165;28;20263;-85
2021/09/01 03:00:39;;;;;;;1.70;0.70;;;14.30;99.90;;;;;;4994899;28;20235;-85
2021/09/01 03:03:05;;;;;;;0.63;0.50;;;14.30;99.90;;;;;;4977460;28;20681;-85
2021/09/01 03:05:31;;;;;;;0.23;0.23;;;14.40;99.90;;;;;;4977528;28;20859;-85
2021/09/01 03:07:56;;;;;;;0.10;0.10;;;14.40;99.90;;;;;;4976461;28;20214;-85
2021/09/01 03:10:22;;;;;;;0.57;0.57;;;14.50;99.90;;;;;;4977406;28;20671;-85
2021/09/01 03:12:47;;;;;;;0.50;0.50;;;14.50;99.90;;;;;;4977328;28;20679;-85
2021/09/01 03:15:13;;;;;;;0.30;0.30;;;14.50;99.90;;;;;;4994734;28;20197;-85
2021/09/01 03:17:39;;;;;;;3.77;0.83;;;14.50;99.90;;;;;;4977020;28;20209;-85
2021/09/01 03:20:05;;;;;;;0.20;0.20;;;14.50;99.90;;;;;;4977367;28;20193;-85
2021/09/01 03:22:31;;;;;;;0.47;0.47;;;14.50;99.90;;;;;;4975571;28;20271;-85
2021/09/01 03:24:56;;;;;;;2.63;0.80;;;14.50;99.90;;;;;;4994511;28;20223;-85
2021/09/01 03:27:22;;;;;;;0.70;0.57;;;14.50;99.90;;;;;;4977236;28;20217;-84
2021/09/01 03:29:48;;;;;;;2.20;0.87;;;14.50;99.90;;;;;;4977189;28;20181;-85
2021/09/01 03:32:13;;;;;;;0.77;0.33;;;14.50;99.90;;;;;;4976912;28;20198;-85
2021/09/01 03:34:39;;;;;;;1.23;0.87;;;14.40;99.90;;;;;;4976897;28;20645;-85
2021/09/01 03:37:04;;;;;;;0.83;0.83;;;14.40;99.90;;;;;;4975767;28;20275;-85
2021/09/01 03:39:30;;;;;;;0.53;0.30;;;14.40;99.90;;;;;;4977037;28;20685;-85
2021/09/01 03:41:56;;;;;;;0.97;0.60;;;14.30;99.90;;;;;;4971684;28;20188;-85
2021/09/01 03:44:21;;;;;;;0.30;0.30;;;14.30;99.90;;;;;;4977111;28;20189;-84
2021/09/01 03:46:47;;;;;;;0.80;0.53;;;14.20;99.90;;;;;;4976438;28;20220;-85
2021/09/01 03:49:18;;;;;;;0.43;0.43;;;14.20;99.90;;;;;;4992292;28;20193;-85
2021/09/01 03:51:45;;;;;;;0.37;0.37;;;14.00;99.90;;;;;;4966735;28;20188;-86
2021/09/01 03:54:10;;;;;;;0.67;0.67;;;13.90;99.90;;;;;;4965890;28;20193;-86
2021/09/01 03:56:37;;;;;;;0.40;0.40;;;13.80;99.90;;;;;;4976468;28;20224;-86
2021/09/01 03:59:03;;;;;;;0.33;0.33;;;13.90;99.90;;;;;;4976192;28;20180;-85
2021/09/01 04:01:29;;;;;;;0.73;0.33;;;14.00;99.90;;;;;;4975761;28;20220;-85
2021/09/01 04:03:54;;;;;;;0.10;0.10;;;14.00;99.90;;;;;;4971336;28;20219;-84
2021/09/01 04:06:20;;;;;;;0.30;0.30;;;14.00;99.90;;;;;;4975798;28;20239;-85
2021/09/01 04:08:45;;;;;;;0.40;0.40;;;14.00;99.90;;;;;;4988970;28;20196;-85
2021/09/01 04:11:11;;;;;;;0.30;0.30;;;14.10;99.90;;;;;;4975017;28;20196;-85
2021/09/01 04:13:37;;;;;;;0.60;0.20;;;14.10;99.90;;;;;;4980517;28;20192;-84
2021/09/01 04:16:02;;;;;;;0.90;0.50;;;14.00;99.90;;;;;;4978215;28;20703;-84
2021/09/01 04:18:28;;;;;;;0.30;0.30;;;14.00;99.90;;;;;;4969729;28;20184;-84
2021/09/01 04:20:54;;;;;;;0.67;0.67;;;14.00;99.90;;;;;;4972667;28;20813;-84
2021/09/01 04:23:19;;;;;;;0.83;0.83;;;14.10;99.90;;;;;;4982384;28;20618;-84
2021/09/01 04:25:45;;;;;;;1.20;0.93;;;14.10;99.90;;;;;;4973789;28;20207;-85
2021/09/01 04:28:10;;;;;;;0.43;0.40;;;14.20;99.90;;;;;;4991700;28;20216;-84
2021/09/01 04:30:36;;;;;;;0.70;0.70;;;14.20;99.90;;;;;;4991593;28;20196;-85
2021/09/01 04:33:01;;;;;;;2.03;1.00;;;14.20;99.90;;;;;;4974245;28;20235;-83
2021/09/01 04:35:27;;;;;;;0.83;0.73;;;14.20;99.90;;;;;;4970574;28;20199;-84
2021/09/01 04:37:52;;;;;;;1.07;1.03;;;14.20;99.90;;;;;;4975059;28;20238;-85
2021/09/01 04:40:18;;;;;;;1.80;1.70;;;14.20;99.90;;;;;;4975536;28;20303;-84
2021/09/01 04:42:43;;;;;;;0.50;0.50;;;14.20;99.90;;;;;;4982671;28;20185;-84
2021/09/01 04:45:10;;;;;;;0.73;0.57;;;14.20;99.90;;;;;;4962293;28;20299;-84
2021/09/01 04:47:35;;;;;;;0.13;0.13;;;14.10;99.90;;;;;;4973662;28;20208;-84
2021/09/01 04:50:01;;;;;;;0.40;0.37;;;14.10;99.90;;;;;;4991778;28;20191;-84
2021/09/01 04:52:27;;;;;;;0.90;0.70;;;14.00;99.90;;;;;;4974796;28;20706;-84
2021/09/01 04:54:52;;;;;;;0.50;0.50;;;13.70;99.90;;;;;;4972895;28;20184;-84
2021/09/01 04:57:18;;;;;;;0.47;0.47;;;13.60;99.90;;;;;;4991897;28;20211;-84
2021/09/01 04:59:43;;;;;;;1.70;0.60;;;13.50;99.90;;;;;;4973943;28;20181;-84
2021/09/01 05:02:09;;;;;;;0.67;0.67;;;13.30;99.90;;;;;;4971307;28;20202;-84
2021/09/01 05:04:35;;;;;;;0.67;0.43;;;13.30;99.90;;;;;;4972366;28;20196;-84
2021/09/01 05:07:00;;;;;;;2.00;0.60;;;13.40;99.90;;;;;;4971732;28;20203;-84
2021/09/01 05:09:26;;;;;;;0.60;0.60;;;13.40;99.90;;;;;;4973082;28;20195;-84
2021/09/01 05:11:52;;;;;;;0.73;0.50;;;13.50;99.90;;;;;;4992602;28;20191;-84
2021/09/01 05:14:17;;;;;;;0.30;0.30;;;13.60;99.90;;;;;;4971762;28;20202;-85
2021/09/01 05:16:43;;;;;;;0.70;0.40;;;13.80;99.90;;;;;;4974076;28;20310;-84
2021/09/01 05:19:10;;;;;;;0.40;0.40;;;13.90;99.90;;;;;;4973914;28;20546;-85
2021/09/01 05:21:41;;;;;;;0.30;0.30;;;13.90;99.90;;;;;;4990147;28;20203;-85
2021/09/01 05:24:13;;;;;;;0.30;0.30;;;14.00;99.90;;;;;;4990801;28;20561;-84
2021/09/01 05:26:42;;;;;;;0.47;0.47;;;13.90;99.90;;;;;;4982979;28;20222;-85
2021/09/01 05:29:07;;;;;;;1.10;0.57;;;13.80;99.90;;;;;;4974302;28;20195;-86
2021/09/01 05:31:34;;;;;;;3.20;0.97;;;13.90;99.90;;;;;;4974218;28;20652;-86
2021/09/01 05:34:02;;;;;;;1.37;0.60;;;13.90;99.90;;;;;;4972878;28;20594;-85
2021/09/01 05:36:29;;;;;;;0.90;0.43;;;14.00;99.90;;;;;;4968989;28;20220;-85
2021/09/01 05:38:56;;;;;;;0.73;0.70;;;14.00;99.90;;;;;;4966499;28;20708;-85
2021/09/01 05:41:25;;;;;;;1.17;1.07;;;14.20;99.90;;;;;;4984495;28;20188;-83
2021/09/01 05:43:51;;;;;;;0.30;0.30;;;14.30;99.90;;;;;;4970721;28;20191;-83
2021/09/01 05:46:18;;;;;;;0.70;0.70;;;14.40;99.90;;;;;;4989612;28;20219;-83
2021/09/01 05:48:45;;;;;;;0.40;0.40;;;14.40;99.90;;;;;;4972810;28;20196;-83
2021/09/01 05:51:13;;;;;;;0.80;0.80;;;14.50;99.90;;;;;;4970452;28;20219;-83
2021/09/01 05:53:38;;;;;;;1.60;1.30;;;14.60;99.90;;;;;;4972739;28;20660;-84
2021/09/01 05:56:07;;;;;;;0.77;0.60;;;14.80;99.90;;;;;;4987943;28;20239;-83
2021/09/01 05:58:37;;;;;;;0.60;0.60;;;14.90;99.90;;;;;;4968610;28;20273;-84
2021/09/01 06:01:05;;;;;;;1.47;0.90;;;15.00;99.90;;;;;;4977936;28;20227;-84
2021/09/01 06:03:37;;;;;;;0.73;0.73;;;15.20;99.90;;;;;;4952798;28;20251;-85
2021/09/01 06:06:04;;;;;;;0.80;0.60;;;15.10;99.90;;;;;;4974746;28;20276;-84
2021/09/01 06:08:33;;;;;;;1.40;1.30;;;15.00;99.90;;;;;;4975909;28;20188;-84
2021/09/01 06:11:01;;;;;;;0.83;0.73;;;14.90;99.90;;;;;;4990347;28;20176;-84
2021/09/01 06:13:27;;;;;;;0.63;0.63;;;15.10;99.90;;;;;;4972792;28;20193;-84
2021/09/01 06:15:53;;;;;;;0.50;0.50;;;15.10;99.90;;;;;;4989680;28;20213;-84
2021/09/01 06:18:19;;;;;;;5.20;0.50;;;15.20;99.90;;;;;;4975609;28;20291;-84
2021/09/01 06:20:45;;;;;;;0.97;0.97;;;15.30;99.90;;;;;;4994755;28;20271;-86
2021/09/01 06:23:10;;;;;;;0.63;0.63;;;15.40;99.90;;;;;;4960350;28;20184;-87
2021/09/01 06:25:37;;;;;;;0.67;0.67;;;15.50;99.90;;;;;;4968820;28;20184;-87
2021/09/01 06:28:05;;;;;;;3.00;0.47;;;15.70;99.90;;;;;;4972396;28;20203;-87
2021/09/01 06:30:31;;;;;;;0.87;0.50;;;15.60;99.90;;;;;;4978173;28;20178;-87
2021/09/01 06:32:56;;;;;;;1.00;0.50;;;15.70;99.90;;;;;;4978525;28;20335;-87
2021/09/01 06:35:22;;;;;;;1.13;0.80;;;15.90;99.90;;;;;;4994266;28;20594;-87
2021/09/01 06:37:49;;;;;;;1.03;0.97;;;16.00;99.90;;;;;;4994031;28;20209;-86
2021/09/01 06:40:17;;;;;;;1.07;1.07;;;16.00;99.90;;;;;;4973666;28;20340;-87
2021/09/01 06:42:43;;;;;;;1.50;0.80;;;16.10;99.90;;;;;;4978260;28;20221;-87
2021/09/01 06:45:09;;;;;;;3.30;1.43;;;16.30;99.90;;;;;;4994553;28;20217;-87
2021/09/01 06:47:53;;;;;;;0.50;0.40;;;16.20;99.90;;;;;;4977600;28;20228;-87
2021/09/01 06:50:22;;;;;;;0.70;0.47;;;16.50;99.90;;;;;;4992404;28;20185;-88
2021/09/01 06:52:51;;;;;;;0.87;0.40;;;16.90;99.90;;;;;;4978302;28;20216;-87
2021/09/01 06:55:17;;;;;;;1.17;1.10;;;17.10;99.90;;;;;;4993782;28;20185;-87
2021/09/01 06:57:43;;;;;;;1.43;0.97;;;17.10;99.90;;;;;;4969423;28;20599;-87
2021/09/01 07:00:11;;;;;;;3.17;1.27;;;17.10;99.90;;;;;;4967061;28;20274;-88
2021/09/01 07:02:37;;;;;;;1.63;1.53;;;17.10;99.90;;;;;;4994596;28;20190;-87
2021/09/01 07:05:03;;;;;;;0.70;0.40;;;17.50;99.90;;;;;;4974167;28;20216;-87
2021/09/01 07:07:29;;;;;;;0.83;0.83;;;17.60;99.90;;;;;;4976181;28;20221;-86
2021/09/01 07:09:55;;;;;;;2.03;1.00;;;17.50;99.90;;;;;;4968148;28;20765;-87
2021/09/01 07:12:22;;;;;;;0.53;0.53;;;17.70;99.90;;;;;;4988329;28;20238;-87
2021/09/01 07:14:48;;;;;;;0.60;0.60;;;18.00;99.90;;;;;;4968607;28;20191;-86
2021/09/01 07:17:13;;;;;;;0.50;0.50;;;18.00;99.90;;;;;;4982142;28;20223;-87
2021/09/01 07:19:39;;;;;;;0.90;0.83;;;18.00;99.90;;;;;;4973753;28;20284;-87
2021/09/01 07:22:04;;;;;;;0.63;0.60;;;18.00;99.90;;;;;;4977330;28;20183;-87
2021/09/01 07:24:30;;;;;;;1.37;1.27;;;18.10;99.90;;;;;;4977012;28;20557;-87
2021/09/01 07:26:55;;;;;;;1.47;1.33;;;18.00;99.90;;;;;;4976956;28;20211;-87
2021/09/01 07:29:21;;;;;;;1.20;1.20;;;17.60;99.90;;;;;;4977438;28;20193;-86
2021/09/01 07:31:47;;;;;;;1.27;0.53;;;17.70;99.90;;;;;;4977310;28;20262;-87
2021/09/01 07:34:12;;;;;;;0.37;0.30;;;18.00;99.90;;;;;;4994810;28;20179;-86
2021/09/01 07:36:38;;;;;;;0.87;0.73;;;17.80;99.90;;;;;;4976957;28;20211;-86
2021/09/01 07:39:03;;;;;;;0.73;0.73;;;17.90;99.90;;;;;;4977001;28;20203;-87
2021/09/01 07:41:29;;;;;;;4.50;1.17;;;18.10;99.90;;;;;;4977074;28;20218;-87
2021/09/01 07:43:55;;;;;;;0.77;0.63;;;18.20;99.90;;;;;;4977235;28;20660;-87
2021/09/01 07:46:20;;;;;;;0.50;0.50;;;18.40;99.90;;;;;;4974008;28;20218;-88
2021/09/01 07:48:46;;;;;;;0.37;0.37;;;18.30;99.90;;;;;;4973992;28;20184;-86
2021/09/01 07:51:11;;;;;;;0.40;0.40;;;18.50;99.90;;;;;;4975877;28;20202;-87
2021/09/01 07:53:37;;;;;;;0.60;0.60;;;18.60;99.90;;;;;;4984812;28;20192;-88
2021/09/01 07:56:03;;;;;;;1.03;1.03;;;18.40;99.90;;;;;;4975980;28;20286;-87
2021/09/01 07:58:28;;;;;;;1.47;1.10;;;18.30;99.90;;;;;;4971661;28;20683;-84
2021/09/01 08:00:54;;;;;;;1.13;0.77;;;18.40;99.90;;;;;;4972115;28;20270;-84
2021/09/01 08:03:20;;;;;;;1.03;0.93;;;18.80;99.90;;;;;;4975687;28;20191;-84
2021/09/01 08:05:52;;;;;;;0.47;0.47;;;18.70;99.90;;;;;;4964049;28;20194;-85
2021/09/01 08:08:17;;;;;;;1.63;1.53;;;19.00;99.90;;;;;;4970573;28;20204;-83
2021/09/01 08:10:43;;;;;;;0.97;0.97;;;19.10;99.90;;;;;;4993172;28;20238;-83
2021/09/01 08:13:08;;;;;;;0.50;0.50;;;19.50;99.90;;;;;;4971326;28;20253;-82
2021/09/01 08:15:34;;;;;;;1.23;0.57;;;19.80;99.90;;;;;;4991005;28;20180;-83
2021/09/01 08:17:59;;;;;;;0.50;0.50;;;20.00;99.90;;;;;;4974854;28;20211;-83
2021/09/01 08:20:25;;;;;;;0.60;0.60;;;19.90;99.90;;;;;;4968129;28;20213;-83
2021/09/01 08:22:51;;;;;;;2.30;0.53;;;20.20;99.90;;;;;;4991104;28;20269;-83
2021/09/01 08:25:16;;;;;;;0.80;0.80;;;20.30;99.90;;;;;;4973934;28;20194;-83
2021/09/01 08:27:45;;;;;;;1.63;0.90;;;20.10;99.90;;;;;;4973037;28;20286;-83
2021/09/01 08:30:12;;;;;;;0.60;0.60;;;19.50;99.90;;;;;;4989770;28;20184;-84
2021/09/01 08:32:37;;;;;;;1.33;0.83;;;19.30;99.90;;;;;;4990782;28;20199;-85
2021/09/01 08:35:03;;;;;;;0.70;0.70;;;19.40;99.90;;;;;;4986812;28;20192;-85
2021/09/01 08:37:29;;;;;;;1.03;0.50;;;19.60;99.90;;;;;;4990676;28;20298;-84
2021/09/01 08:39:54;;;;;;;1.20;0.77;;;19.60;99.90;;;;;;4974463;28;20202;-85
2021/09/01 08:42:22;;;;;;;0.50;0.50;;;19.60;99.90;;;;;;4978254;28;20641;-85
2021/09/01 08:44:48;;;;;;;0.60;0.60;;;19.80;99.90;;;;;;4971313;28;20187;-84
2021/09/01 08:47:16;;;;;;;1.77;0.70;;;20.10;99.90;;;;;;4965151;28;20219;-84
2021/09/01 08:49:45;;;;;;;2.20;0.67;;;20.60;99.90;;;;;;4984403;28;20191;-84
2021/09/01 08:52:10;;;;;;;2.83;1.10;;;20.50;99.90;;;;;;4993100;28;20200;-84
2021/09/01 08:54:36;;;;;;;1.77;0.93;;;20.40;99.90;;;;;;4975137;28;20184;-85
2021/09/01 08:57:02;;;;;;;0.50;0.50;;;20.30;99.90;;;;;;4975037;28;20223;-85
2021/09/01 08:59:27;;;;;;;1.00;0.63;;;20.50;99.90;;;;;;4974816;28;20195;-85
2021/09/01 09:01:55;;;;;;;0.90;0.80;;;20.10;99.90;;;;;;4973296;28;20187;-87
2021/09/01 09:04:30;;;;;;;1.33;0.80;;;20.20;99.90;;;;;;4990545;28;20706;-87
2021/09/01 09:07:01;;;;;;;0.90;0.90;;;20.50;99.90;;;;;;4980424;28;20206;-84
2021/09/01 09:09:31;;;;;;;0.87;0.70;;;20.00;99.90;;;;;;4982505;28;20227;-85
2021/09/01 09:11:59;;;;;;;3.40;1.43;;;20.20;99.90;;;;;;4991282;28;20191;-83
2021/09/01 09:14:34;;;;;;;1.13;1.03;;;20.10;99.90;;;;;;4970602;28;20543;-84
2021/09/01 09:17:04;;;;;;;0.60;0.60;;;19.70;99.90;;;;;;4971850;28;20218;-83
2021/09/01 09:19:55;;;;;;;0.90;0.50;;;20.10;99.90;;;;;;4977273;28;20542;-86
2021/09/01 09:22:39;;;;;;;0.67;0.67;;;20.00;99.90;;;;;;4970583;28;20664;-85
2021/09/01 09:25:13;;;;;;;2.03;0.70;;;20.10;99.90;;;;;;4969014;28;20199;-84
2021/09/01 09:27:55;;;;;;;1.70;1.00;;;20.00;99.90;;;;;;4984847;28;20657;-84
2021/09/01 09:30:21;;;;;;;1.63;1.17;;;19.80;99.90;;;;;;4976098;28;20201;-83
2021/09/01 09:33:03;;;;;;;0.90;0.70;;;20.20;99.90;;;;;;4991711;28;20184;-84
2021/09/01 09:35:59;;;;;;;1.57;1.00;;;20.20;99.90;;;;;;4989287;28;20189;-84
2021/09/01 09:38:41;;;;;;;0.40;0.40;;;20.00;99.90;;;;;;4985465;28;20204;-84
2021/09/01 09:41:20;;;;;;;0.67;0.60;;;20.20;99.90;;;;;;4975383;28;20187;-84
2021/09/01 09:43:47;;;;;;;0.90;0.90;;;20.10;99.90;;;;;;4995713;28;20179;-84
2021/09/01 09:46:13;;;;;;;0.53;0.40;;;20.40;99.90;;;;;;4977341;28;20195;-84
2021/09/01 09:48:42;;;;;;;1.13;0.77;;;20.40;99.90;;;;;;4976929;28;20184;-84
2021/09/01 09:51:14;;;;;;;4.20;0.97;;;20.00;99.90;;;;;;4974891;28;20194;-85
2021/09/01 09:53:45;;;;;;;1.50;0.87;;;19.90;99.90;;;;;;4973441;28;20553;-86
2021/09/01 09:56:14;;;;;;;0.87;0.40;;;19.80;99.90;;;;;;4976958;28;20221;-84
2021/09/01 09:58:47;;;;;;;0.67;0.67;;;19.80;99.90;;;;;;4997360;28;20180;-84
2021/09/01 10:01:14;;;;;;;1.60;1.20;;;20.20;99.90;;;;;;4990016;28;20184;-84
2021/09/01 10:03:40;;;;;;;0.73;0.57;;;20.40;99.90;;;;;;4997766;28;20656;-82
2021/09/01 10:06:07;;;;;;;0.70;0.70;;;20.10;99.90;;;;;;4974785;28;20200;-83
2021/09/01 10:08:36;;;;;;;0.80;0.80;;;19.90;99.90;;;;;;4990102;28;20188;-83
2021/09/01 10:11:04;;;;;;;0.50;0.50;;;20.00;99.90;;;;;;4993209;28;20184;-84
2021/09/01 10:13:30;;;;;;;0.60;0.60;;;20.50;99.90;;;;;;4981703;28;20187;-85
2021/09/01 10:16:04;;;;;;;4.50;1.13;;;20.80;99.90;;;;;;4997925;28;20203;-85
2021/09/01 10:18:31;;;;;;;1.40;0.80;;;20.90;99.90;;;;;;4995268;28;20183;-85
2021/09/01 10:20:57;;;;;;;0.97;0.50;;;20.90;99.90;;;;;;4980631;28;20182;-84
2021/09/01 10:23:41;;;;;;;1.53;0.87;;;20.90;99.90;;;;;;4980718;28;20195;-84
2021/09/01 10:26:33;;;;;;;0.63;0.63;;;20.50;99.90;;;;;;4978808;28;20218;-85
2021/09/01 10:29:01;;;;;;;1.83;0.50;;;21.10;99.90;;;;;;4997209;28;20593;-85
2021/09/01 10:31:30;;;;;;;1.10;0.70;;;21.90;99.90;;;;;;4980558;28;20194;-85
2021/09/01 10:34:19;;;;;;;1.23;0.83;;;22.20;99.90;;;;;;4997785;28;20183;-85
2021/09/01 10:36:52;;;;;;;3.53;0.60;;;22.10;99.90;;;;;;4981031;28;20765;-86
2021/09/01 10:39:36;;;;;;;0.40;0.40;;;22.70;99.90;;;;;;4980952;28;20265;-85
2021/09/01 10:42:38;;;;;;;0.77;0.73;;;21.80;99.90;;;;;;4965526;28;20544;-85
2021/09/01 10:45:19;;;;;;;1.67;1.57;;;22.20;99.90;;;;;;4971840;28;20682;-85
2021/09/01 10:48:05;;;;;;;0.97;0.97;;;22.00;99.90;;;;;;4972832;28;20219;-86
2021/09/01 10:50:35;;;;;;;0.73;0.73;;;21.80;99.90;;;;;;4979277;28;20223;-86
2021/09/01 10:53:18;;;;;;;1.00;0.93;;;21.90;99.90;;;;;;4990843;28;20191;-86
2021/09/01 10:56:05;;;;;;;0.87;0.87;;;21.90;99.90;;;;;;4976792;28;20195;-87
2021/09/01 10:58:32;;;;;;;1.33;0.90;;;21.40;99.90;;;;;;4975933;28;20192;-85
2021/09/01 11:01:06;;;;;;;0.90;0.67;;;21.50;99.90;;;;;;4975612;28;20188;-86
2021/09/01 11:03:39;;;;;;;1.40;0.90;;;21.70;99.90;;;;;;4965341;28;20192;-86
2021/09/01 11:06:24;;;;;;;1.27;0.67;;;21.30;99.90;;;;;;4989714;28;20191;-86
2021/09/01 11:09:00;;;;;;;0.77;0.70;;;21.40;99.90;;;;;;4992099;28;20314;-85
2021/09/01 11:11:50;;;;;;;1.80;1.33;;;21.70;99.90;;;;;;4976387;28;21025;-86
2021/09/01 11:14:37;;;;;;;0.70;0.70;;;22.80;99.90;;;;;;4994069;28;20192;-85
2021/09/01 11:17:10;;;;;;;0.70;0.70;;;22.20;99.90;;;;;;4967347;28;20312;-85
2021/09/01 11:19:42;;;;;;;1.40;0.87;;;22.20;99.90;;;;;;4976325;28;20191;-85
2021/09/01 11:22:11;;;;;;;0.80;0.80;;;22.10;99.90;;;;;;4990473;28;20180;-85
2021/09/01 11:24:53;;;;;;;1.23;1.10;;;21.70;99.90;;;;;;4980782;28;20272;-86
2021/09/01 11:27:23;;;;;;;3.63;1.10;;;22.10;99.90;;;;;;4980624;28;20274;-85
2021/09/01 11:29:50;;;;;;;1.30;0.73;;;21.80;99.90;;;;;;4980710;28;20210;-87
2021/09/01 11:32:20;;;;;;;0.97;0.70;;;21.50;99.90;;;;;;4976183;28;20192;-86
2021/09/01 11:34:47;;;;;;;2.00;1.20;;;22.10;99.90;;;;;;4973048;28;20198;-86
2021/09/01 11:37:14;;;;;;;0.60;0.60;;;22.40;99.90;;;;;;4974739;28;20235;-86
2021/09/01 11:39:45;;;;;;;1.80;0.73;;;22.40;99.90;;;;;;4994361;28;20202;-86
2021/09/01 11:42:11;;;;;;;2.27;0.70;;;21.80;99.90;;;;;;4994281;28;20183;-87
2021/09/01 11:44:39;;;;;;;0.87;0.83;;;21.70;99.90;;;;;;4993196;28;20222;-86
2021/09/01 11:47:15;;;;;;;0.97;0.67;;;21.70;99.90;;;;;;4969221;28;20714;-86
2021/09/01 11:49:42;;;;;;;2.13;2.03;;;21.60;99.90;;;;;;4976831;28;20175;-86
2021/09/01 11:52:08;;;;;;;0.70;0.70;;;21.80;99.90;;;;;;4997358;28;20191;-86
2021/09/01 11:54:40;;;;;;;0.83;0.73;;;21.50;99.90;;;;;;4993754;28;20549;-87
2021/09/01 11:57:06;;;;;;;0.40;0.40;;;21.20;99.90;;;;;;4977049;28;20303;-85
2021/09/01 11:59:34;;;;;;;0.53;0.53;;;21.40;99.90;;;;;;4989197;28;20184;-85
2021/09/01 12:02:02;;;;;;;6.97;1.27;;;21.40;99.90;;;;;;4975474;28;20176;-85
2021/09/01 12:04:28;;;;;;;3.10;0.83;;;21.10;99.90;;;;;;4976399;28;20194;-85
2021/09/01 12:06:55;;;;;;;0.53;0.53;;;21.20;99.90;;;;;;4976496;28;20578;-86
2021/09/01 12:09:23;;;;;;;0.93;0.87;;;21.40;99.90;;;;;;4993180;28;20182;-84
2021/09/01 12:11:55;;;;;;;0.83;0.83;;;22.00;99.90;;;;;;4985413;28;20211;-84
2021/09/01 12:14:23;;;;;;;0.63;0.63;;;22.20;99.90;;;;;;4980196;28;20193;-83
2021/09/01 12:16:50;;;;;;;0.67;0.67;;;22.40;99.90;;;;;;4976027;28;20699;-84
2021/09/01 12:19:18;;;;;;;0.57;0.50;;;22.90;99.90;;;;;;4974505;28;20192;-84
2021/09/01 12:21:55;;;;;;;0.70;0.70;;;22.40;99.90;;;;;;4993007;28;20187;-84
2021/09/01 12:24:27;;;;;;;0.60;0.60;;;22.10;99.90;;;;;;4968996;28;20195;-84
2021/09/01 12:26:58;;;;;;;0.37;0.37;;;21.20;99.90;;;;;;4968708;28;20207;-83
2021/09/01 12:29:24;;;;;;;0.43;0.43;;;21.00;99.90;;;;;;4987329;28;20186;-84
2021/09/01 12:31:51;;;;;;;0.80;0.57;;;21.10;99.90;;;;;;4962417;28;20179;-85
2021/09/01 12:34:23;;;;;;;1.37;0.70;;;21.20;99.90;;;;;;4974260;28;20318;-84
2021/09/01 12:36:57;;;;;;;0.53;0.53;;;20.80;99.90;;;;;;4987101;28;20211;-84
2021/09/01 12:39:22;;;;;;;0.47;0.47;;;21.40;99.90;;;;;;4970348;28;20283;-84
2021/09/01 12:41:48;;;;;;;1.07;1.07;;;21.90;99.90;;;;;;4975125;28;20286;-85
2021/09/01 12:44:16;;;;;;;0.40;0.40;;;21.80;99.90;;;;;;4975906;28;20214;-84
2021/09/01 12:46:42;;;;;;;1.13;0.83;;;22.40;99.90;;;;;;4973073;28;20212;-86
2021/09/01 12:49:24;;;;;;;0.60;0.60;;;22.10;99.90;;;;;;4973037;28;20477;-85
2021/09/01 12:51:50;;;;;;;0.30;0.30;;;22.50;99.90;;;;;;4993347;28;20263;-86
2021/09/01 12:54:21;;;;;;;0.50;0.50;;;22.50;99.90;;;;;;4980621;28;20247;-86
2021/09/01 12:56:47;;;;;;;0.80;0.80;;;22.00;99.90;;;;;;4979758;28;20207;-86